createdAt,value
2016-10-23T00:04:38.452Z,78.65
2016-10-23T00:09:38.397Z,78.55
2016-10-23T00:14:38.341Z,78.42
2016-10-23T00:19:38.289Z,78.61
2016-10-23T00:24:38.231Z,78.13
2016-10-23T00:29:37.878Z,78.13
2016-10-23T00:34:38.125Z,78.23
2016-10-23T00:39:38.077Z,78.32
2016-10-23T00:44:37.710Z,78.32
2016-10-23T00:49:37.959Z,78.03
2016-10-23T00:54:37.903Z,78.42
2016-10-23T00:59:37.545Z,78.52
2016-10-23T01:04:37.793Z,78.03
2016-10-23T01:09:37.771Z,77.84
2016-10-23T01:14:37.719Z,78
2016-10-23T01:19:37.623Z,77.9
2016-10-23T01:24:37.565Z,77.46
2016-10-23T01:29:37.213Z,77.23
2016-10-23T01:34:37.457Z,77.71
2016-10-23T01:39:37.097Z,77.71
2016-10-23T01:44:37.342Z,77.42
2016-10-23T01:49:36.982Z,77.61
2016-10-23T01:54:37.232Z,77.23
2016-10-23T01:59:37.172Z,77.23
2016-10-23T02:04:37.112Z,77.23
2016-10-23T02:09:37.058Z,77.23
2016-10-23T02:14:36.998Z,77.51
2016-10-23T02:19:36.941Z,77.51
2016-10-23T02:24:36.889Z,77.04
2016-10-23T02:29:36.828Z,76.94
2016-10-23T02:34:36.772Z,77.13
2016-10-23T02:39:36.714Z,76.94
2016-10-23T02:44:36.654Z,77.04
2016-10-23T02:49:36.602Z,77.23
2016-10-23T02:54:36.538Z,76.94
2016-10-23T02:59:36.480Z,77.13
2016-10-23T03:04:36.425Z,77.33
2016-10-23T03:09:36.364Z,77.04
2016-10-23T03:14:36.308Z,76.94
2016-10-23T03:19:36.243Z,76.94
2016-10-23T03:24:36.184Z,77
2016-10-23T03:29:36.131Z,77.09
2016-10-23T03:34:36.076Z,77.38
2016-10-23T03:39:36.008Z,76.56
2016-10-23T03:44:35.960Z,76.42
2016-10-23T03:49:35.889Z,76.42
2016-10-23T03:54:35.830Z,77.38
2016-10-23T03:59:35.776Z,77.38
2016-10-23T04:04:35.716Z,77.29
2016-10-23T04:09:35.655Z,76.9
2016-10-23T04:14:35.593Z,77.19
2016-10-23T04:19:35.540Z,77
2016-10-23T04:24:35.475Z,76.9
2016-10-23T04:29:35.416Z,76.81
2016-10-23T04:34:35.370Z,77.19
2016-10-23T04:39:34.994Z,77
2016-10-23T04:44:34.925Z,77
2016-10-23T04:49:35.217Z,76.81
2016-10-23T04:54:34.807Z,77
2016-10-23T04:59:35.057Z,76.71
2016-10-23T05:04:34.993Z,76.42
2016-10-23T05:09:34.626Z,76.32
2016-10-23T05:14:34.566Z,76.62
2016-10-23T05:19:34.816Z,76.81
2016-10-23T05:24:34.755Z,76.52
2016-10-23T05:29:34.387Z,76.52
2016-10-23T05:34:34.630Z,76.52
2016-10-23T05:39:34.573Z,76.42
2016-10-23T05:44:34.507Z,76.42
2016-10-23T05:49:34.446Z,76.52
2016-10-23T05:54:34.386Z,76.32
2016-10-23T05:59:34.327Z,76.32
2016-10-23T06:04:34.264Z,76.39
2016-10-23T06:09:34.208Z,76.1
2016-10-23T06:14:34.150Z,76.42
2016-10-23T06:19:34.078Z,76.62
2016-10-23T06:24:34.021Z,76.23
2016-10-23T06:29:33.959Z,77.38
2016-10-23T06:34:33.897Z,76.32
2016-10-23T06:39:33.838Z,76.75
2016-10-23T06:44:33.778Z,76.07
2016-10-23T06:49:33.716Z,76.27
2016-10-23T06:54:33.656Z,76.46
2016-10-23T06:59:33.609Z,76.02
2016-10-23T07:04:33.538Z,76.4
2016-10-23T07:09:33.177Z,76.21
2016-10-23T07:14:33.423Z,76.12
2016-10-23T07:19:33.061Z,75.35
2016-10-23T07:24:33.310Z,75.73
2016-10-23T07:29:33.277Z,75.54
2016-10-23T07:34:33.187Z,75.31
2016-10-23T07:39:33.135Z,75.25
2016-10-23T07:44:33.081Z,75.21
2016-10-23T07:49:33.017Z,75.02
2016-10-23T07:54:32.960Z,76.12
2016-10-23T07:59:32.598Z,77.94
2016-10-23T08:04:32.856Z,77.94
2016-10-23T08:09:32.791Z,77.94
2016-10-23T08:14:32.738Z,78.75
2016-10-23T08:19:32.680Z,78.7
2016-10-23T08:24:32.623Z,78.23
2016-10-23T08:29:32.263Z,78.27
2016-10-23T08:34:32.510Z,78.52
2016-10-23T08:39:32.461Z,77.84
2016-10-23T08:44:32.399Z,77.84
2016-10-23T08:49:32.347Z,77.56
2016-10-23T08:54:31.987Z,77.94
2016-10-23T08:59:32.237Z,77.84
2016-10-23T09:04:31.915Z,77.36
2016-10-23T09:09:32.124Z,78.23
2016-10-23T09:14:32.071Z,78.13
2016-10-23T09:19:31.710Z,78.23
2016-10-23T09:24:31.965Z,78.13
2016-10-23T09:29:31.909Z,78.13
2016-10-23T09:34:31.851Z,78.23
2016-10-23T09:39:31.795Z,78.03
2016-10-23T09:44:31.743Z,78.32
2016-10-23T09:49:31.686Z,78.42
2016-10-23T09:54:31.327Z,78.8
2016-10-23T09:59:31.577Z,78.84
2016-10-23T10:04:31.525Z,78.75
2016-10-23T10:09:31.471Z,78.75
2016-10-23T10:14:31.423Z,78.88
2016-10-23T10:19:31.371Z,78.88
2016-10-23T10:24:31.317Z,78.88
2016-10-23T10:29:31.259Z,78.98
2016-10-23T10:34:30.902Z,79.27
2016-10-23T10:39:30.849Z,79.36
2016-10-23T10:44:30.795Z,78.88
2016-10-23T10:49:31.047Z,79.07
2016-10-23T10:54:30.996Z,79.07
2016-10-23T10:59:30.643Z,78.59
2016-10-23T11:04:30.898Z,78.59
2016-10-23T11:09:30.837Z,78.84
2016-10-23T11:14:30.783Z,78.75
2016-10-23T11:19:30.739Z,78.27
2016-10-23T11:24:30.685Z,77.98
2016-10-23T11:29:30.627Z,77.98
2016-10-23T11:34:30.567Z,78.27
2016-10-23T11:39:30.517Z,78.55
2016-10-23T11:44:30.459Z,78.11
2016-10-23T11:49:30.417Z,77.88
2016-10-23T11:54:30.359Z,78.21
2016-10-23T11:59:30.001Z,78.02
2016-10-23T12:04:29.939Z,78.08
2016-10-23T12:09:29.890Z,77.21
2016-10-23T12:14:30.140Z,77.53
2016-10-23T12:19:30.096Z,78.21
2016-10-23T12:24:29.729Z,78.21
2016-10-23T12:29:29.676Z,78.36
2016-10-23T12:34:29.924Z,79.03
2016-10-23T12:39:29.565Z,79.71
2016-10-23T12:44:29.514Z,78.65
2016-10-23T12:49:29.766Z,79.65
2016-10-23T12:54:29.714Z,78.53
2016-10-23T12:59:29.676Z,77.67
2016-10-23T13:04:29.617Z,77.33
2016-10-23T13:09:29.553Z,77.84
2016-10-23T13:14:29.498Z,77.56
2016-10-23T13:19:29.445Z,76.21
2016-10-23T13:24:29.095Z,75.48
2016-10-23T13:29:29.039Z,74.32
2016-10-23T13:34:29.293Z,74.71
2016-10-23T13:39:29.241Z,74.41
2016-10-23T13:44:28.888Z,74.32
2016-10-23T13:49:29.134Z,74.71
2016-10-23T13:54:29.092Z,76.5
2016-10-23T13:59:29.030Z,76.88
2016-10-23T14:04:28.987Z,76.78
2016-10-23T14:09:28.930Z,75.54
2016-10-23T14:14:28.568Z,76.75
2016-10-23T14:19:28.526Z,76.94
2016-10-23T14:24:28.486Z,76.46
2016-10-23T14:29:28.734Z,75.75
2016-10-23T14:34:28.672Z,76.61
2016-10-23T14:39:28.625Z,76.32
2016-10-23T14:44:28.270Z,77.48
2016-10-23T14:49:28.525Z,77.67
2016-10-23T14:54:28.173Z,77.67
2016-10-23T14:59:28.423Z,77.48
2016-10-23T15:04:28.380Z,77.96
2016-10-23T15:09:28.322Z,77.58
2016-10-23T15:14:28.269Z,77.76
2016-10-23T15:19:27.918Z,77.53
2016-10-23T15:24:27.861Z,77.34
2016-10-23T15:29:28.116Z,78.69
2016-10-23T15:34:28.059Z,79.36
2016-10-23T15:39:28.005Z,79.75
2016-10-23T15:44:27.953Z,80.42
2016-10-23T15:49:27.598Z,80.04
2016-10-23T15:54:27.533Z,80.09
2016-10-23T15:59:27.791Z,80.38
2016-10-23T16:04:27.735Z,80.47
2016-10-23T16:09:27.669Z,80.09
2016-10-23T16:14:27.317Z,81.05
2016-10-23T16:19:27.586Z,80.86
2016-10-23T16:24:27.515Z,80.86
2016-10-23T16:29:27.158Z,80.8
2016-10-23T16:34:27.408Z,80.76
2016-10-23T16:39:27.356Z,80.38
2016-10-23T16:44:26.994Z,80.47
2016-10-23T16:49:27.243Z,80.66
2016-10-23T16:54:27.188Z,80.09
2016-10-23T16:59:26.819Z,80.86
2016-10-23T17:04:26.772Z,80.28
2016-10-23T17:09:27.035Z,80.47
2016-10-23T17:14:26.979Z,81.05
2016-10-23T17:19:26.918Z,81.34
2016-10-23T17:24:26.866Z,81.05
2016-10-23T17:29:26.516Z,80.61
2016-10-23T17:34:26.770Z,79.55
2016-10-23T17:39:26.718Z,79.36
2016-10-23T17:44:26.674Z,78.25
2016-10-23T17:49:26.307Z,78.15
2016-10-23T17:54:26.566Z,77.48
2016-10-23T17:59:26.518Z,77.51
2016-10-23T18:04:26.460Z,78.96
2016-10-23T18:09:26.420Z,77.9
2016-10-23T18:14:26.371Z,77.61
2016-10-23T18:19:26.320Z,77.61
2016-10-23T18:24:25.977Z,77.65
2016-10-23T18:29:26.222Z,77.56
2016-10-23T18:34:26.185Z,77.65
2016-10-23T18:39:25.821Z,78.23
2016-10-23T18:44:25.777Z,78.52
2016-10-23T18:49:26.038Z,78.13
2016-10-23T18:54:25.996Z,78.9
2016-10-23T18:59:25.951Z,78.52
2016-10-23T19:04:25.578Z,79.19
2016-10-23T19:09:25.841Z,78.03
2016-10-23T19:14:25.804Z,77.75
2016-10-23T19:19:26.395Z,77.36
2016-10-23T19:24:25.762Z,77.26
2016-10-23T19:29:25.656Z,78.61
2016-10-23T19:34:25.306Z,78.13
2016-10-23T19:39:25.561Z,77.46
2016-10-23T19:44:25.525Z,77.56
2016-10-23T19:49:25.474Z,77.56
2016-10-23T19:54:25.124Z,78.42
2016-10-23T19:59:25.373Z,77.94
2016-10-23T20:04:25.326Z,77.75
2016-10-23T20:09:25.295Z,77.75
2016-10-23T20:14:25.237Z,78.03
2016-10-23T20:19:25.190Z,78.23
2016-10-23T20:24:25.152Z,77.46
2016-10-23T20:29:25.098Z,77.17
2016-10-23T20:34:24.743Z,77.56
2016-10-23T20:39:25.004Z,77.75
2016-10-23T20:44:24.958Z,76.78
2016-10-23T20:49:24.915Z,78.03
2016-10-23T20:54:24.868Z,77.08
2016-10-23T20:59:24.813Z,77.17
2016-10-23T21:04:24.464Z,76.78
2016-10-23T21:09:24.722Z,77.17
2016-10-23T21:14:24.367Z,77.08
2016-10-23T21:19:24.326Z,77.84
2016-10-23T21:24:24.582Z,77.26
2016-10-23T21:29:24.229Z,76.69
2016-10-23T21:34:24.185Z,77.56
2016-10-23T21:39:24.439Z,76.75
2016-10-23T21:44:24.094Z,76.84
2016-10-23T21:49:24.353Z,77.23
2016-10-23T21:54:24.301Z,77.81
2016-10-23T21:59:24.257Z,76.07
2016-10-23T22:04:24.209Z,76.56
2016-10-23T22:09:24.157Z,76.07
2016-10-23T22:14:24.119Z,75.98
2016-10-23T22:19:24.069Z,76.65
2016-10-23T22:24:23.710Z,75.84
2016-10-23T22:29:23.963Z,76.52
2016-10-23T22:34:23.917Z,76.04
2016-10-23T22:39:23.863Z,76.04
2016-10-23T22:44:23.511Z,76.14
2016-10-23T22:49:23.765Z,76.32
2016-10-23T22:54:23.717Z,76.71
2016-10-23T22:59:23.668Z,76.67
2016-10-23T23:04:23.608Z,76.48
2016-10-23T23:09:23.258Z,76.67
2016-10-23T23:14:23.204Z,76.67
2016-10-23T23:19:23.454Z,76.67
2016-10-23T23:24:23.096Z,76.48
2016-10-23T23:29:23.356Z,77.06
2016-10-23T23:34:22.993Z,76.86
2016-10-23T23:39:23.248Z,76.82
2016-10-23T23:44:23.198Z,76.54
2016-10-23T23:49:23.143Z,76.64
2016-10-23T23:54:23.089Z,76.92
2016-10-23T23:59:22.733Z,76.64
